createdAt,value
2023-05-16T00:02:24.340Z,16.45
2023-05-16T00:04:50.673Z,16.39
2023-05-16T00:07:16.952Z,16.33
2023-05-16T00:09:43.216Z,16.28
2023-05-16T00:12:09.488Z,16.22
2023-05-16T00:14:35.758Z,16.21
2023-05-16T00:17:02.197Z,16.18
2023-05-16T00:19:28.506Z,16.16
2023-05-16T00:21:54.798Z,16.18
2023-05-16T00:24:21.062Z,16.17
2023-05-16T00:26:47.349Z,16.16
2023-05-16T00:29:13.622Z,16.17
2023-05-16T00:31:39.909Z,16.19
2023-05-16T00:34:06.293Z,16.20
2023-05-16T00:36:32.543Z,16.17
2023-05-16T00:38:58.878Z,16.17
2023-05-16T00:41:25.076Z,16.14
2023-05-16T00:43:51.324Z,16.12
2023-05-16T00:46:17.585Z,16.11
2023-05-16T00:48:43.876Z,16.09
2023-05-16T00:51:10.109Z,16.04
2023-05-16T00:53:36.391Z,16.05
2023-05-16T00:56:02.836Z,16.02
2023-05-16T00:58:29.080Z,15.99
2023-05-16T01:00:55.320Z,15.96
2023-05-16T01:03:21.675Z,16.01
2023-05-16T01:05:48.117Z,16.06
2023-05-16T01:08:14.375Z,16.03
2023-05-16T01:10:40.606Z,16.02
2023-05-16T01:13:06.850Z,16.02
2023-05-16T01:15:33.056Z,16.02
2023-05-16T01:17:59.366Z,16.02
2023-05-16T01:20:25.653Z,16.07
2023-05-16T01:22:51.911Z,16.11
2023-05-16T01:25:18.143Z,16.10
2023-05-16T01:27:44.321Z,16.08
2023-05-16T01:30:10.613Z,16.04
2023-05-16T01:32:36.895Z,16.04
2023-05-16T01:35:03.204Z,16.07
2023-05-16T01:37:29.465Z,16.08
2023-05-16T01:39:55.719Z,16.08
2023-05-16T01:42:21.923Z,16.08
2023-05-16T01:44:48.162Z,16.09
2023-05-16T01:47:14.537Z,16.10
2023-05-16T01:49:40.932Z,16.13
2023-05-16T01:52:07.149Z,16.18
2023-05-16T01:54:33.442Z,16.19
2023-05-16T01:56:59.675Z,16.16
2023-05-16T01:59:25.932Z,16.16
2023-05-16T02:01:52.667Z,16.14
2023-05-16T02:04:19.310Z,16.16
2023-05-16T02:06:45.585Z,16.17
2023-05-16T02:09:11.821Z,16.15
2023-05-16T02:11:38.144Z,16.10
2023-05-16T02:14:04.441Z,16.07
2023-05-16T02:16:30.778Z,16.09
2023-05-16T02:18:57.106Z,16.10
2023-05-16T02:21:23.412Z,16.14
2023-05-16T02:23:49.656Z,16.13
2023-05-16T02:26:15.904Z,16.13
2023-05-16T02:28:42.162Z,16.15
2023-05-16T02:31:08.406Z,16.08
2023-05-16T02:33:34.684Z,16.00
2023-05-16T02:36:00.957Z,15.99
2023-05-16T02:38:27.346Z,16.06
2023-05-16T02:40:53.603Z,16.08
2023-05-16T02:43:19.862Z,16.11
2023-05-16T02:45:46.197Z,16.13
2023-05-16T02:48:12.647Z,16.15
2023-05-16T02:50:39.070Z,16.18
2023-05-16T02:53:05.300Z,16.20
2023-05-16T02:55:31.597Z,16.19
2023-05-16T02:57:57.874Z,16.17
2023-05-16T03:00:24.346Z,16.23
2023-05-16T03:02:50.728Z,16.18
2023-05-16T03:05:17.060Z,16.10
2023-05-16T03:07:43.323Z,16.07
2023-05-16T03:10:09.549Z,16.10
2023-05-16T03:12:35.781Z,16.08
2023-05-16T03:15:02.061Z,16.03
2023-05-16T03:17:28.304Z,15.96
2023-05-16T03:19:54.601Z,15.95
2023-05-16T03:22:20.875Z,15.96
2023-05-16T03:24:47.281Z,15.96
2023-05-16T03:27:13.595Z,15.94
2023-05-16T03:29:39.885Z,15.93
2023-05-16T03:32:06.386Z,15.94
2023-05-16T03:34:32.680Z,15.96
2023-05-16T03:36:58.919Z,16.02
2023-05-16T03:39:25.177Z,16.07
2023-05-16T03:41:51.409Z,16.07
2023-05-16T03:44:17.721Z,16.06
2023-05-16T03:46:43.970Z,15.99
2023-05-16T03:49:10.211Z,15.97
2023-05-16T03:51:36.423Z,16.02
2023-05-16T03:54:02.671Z,16.09
2023-05-16T03:56:28.851Z,16.17
2023-05-16T03:58:55.102Z,16.21
2023-05-16T04:01:21.370Z,16.22
2023-05-16T04:03:47.679Z,16.21
2023-05-16T04:06:13.978Z,16.17
2023-05-16T04:08:40.307Z,16.05
2023-05-16T04:11:06.516Z,15.91
2023-05-16T04:13:32.876Z,15.85
2023-05-16T04:15:59.126Z,15.79
2023-05-16T04:18:25.348Z,15.72
2023-05-16T04:20:51.622Z,15.65
2023-05-16T04:23:17.832Z,15.56
2023-05-16T04:25:44.049Z,15.46
2023-05-16T04:28:10.279Z,15.37
2023-05-16T04:30:36.529Z,15.35
2023-05-16T04:33:02.898Z,15.27
2023-05-16T04:35:29.355Z,15.22
2023-05-16T04:37:55.780Z,15.23
2023-05-16T04:40:22.032Z,15.25
2023-05-16T04:42:48.306Z,15.20
2023-05-16T04:45:14.590Z,15.19
2023-05-16T04:47:40.914Z,15.22
2023-05-16T04:50:07.213Z,15.24
2023-05-16T04:52:33.481Z,15.23
2023-05-16T04:54:59.732Z,15.23
2023-05-16T04:57:25.958Z,15.26
2023-05-16T04:59:52.224Z,15.28
2023-05-16T05:02:18.525Z,15.25
2023-05-16T05:04:44.901Z,15.19
2023-05-16T05:07:11.136Z,15.19
2023-05-16T05:09:37.418Z,15.19
2023-05-16T05:12:03.627Z,15.24
2023-05-16T05:14:29.913Z,15.19
2023-05-16T05:16:56.252Z,15.21
2023-05-16T05:19:22.565Z,15.30
2023-05-16T05:21:48.835Z,15.28
2023-05-16T05:24:15.068Z,15.23
2023-05-16T05:26:41.323Z,15.25
2023-05-16T05:29:07.607Z,15.28
2023-05-16T05:31:34.070Z,15.34
2023-05-16T05:34:00.433Z,15.34
2023-05-16T05:36:26.736Z,15.32
2023-05-16T05:38:53.015Z,15.33
2023-05-16T05:41:19.287Z,15.37
2023-05-16T05:43:45.529Z,15.31
2023-05-16T05:46:11.804Z,15.26
2023-05-16T05:48:38.090Z,15.25
2023-05-16T05:51:04.327Z,15.28
2023-05-16T05:53:30.582Z,15.30
2023-05-16T05:55:56.814Z,15.37
2023-05-16T05:58:23.051Z,15.33
2023-05-16T06:00:49.285Z,15.28
2023-05-16T06:03:16.787Z,15.28
2023-05-16T06:05:43.126Z,15.31
2023-05-16T06:08:09.380Z,15.34
2023-05-16T06:10:35.713Z,15.36
2023-05-16T06:13:01.996Z,15.35
2023-05-16T06:15:28.408Z,15.44
2023-05-16T06:17:54.819Z,15.53
2023-05-16T06:20:21.093Z,15.58
2023-05-16T06:22:47.406Z,15.61
2023-05-16T06:25:13.682Z,15.63
2023-05-16T06:27:39.971Z,15.68
2023-05-16T06:30:06.262Z,15.74
2023-05-16T06:32:32.606Z,15.81
2023-05-16T06:34:58.856Z,15.89
2023-05-16T06:37:25.058Z,15.97
2023-05-16T06:39:51.259Z,16.09
2023-05-16T06:42:18.057Z,16.23
2023-05-16T06:44:44.344Z,16.31
2023-05-16T06:47:10.725Z,16.41
2023-05-16T06:49:37.088Z,16.50
2023-05-16T06:52:03.454Z,16.55
2023-05-16T06:54:30.002Z,16.67
2023-05-16T06:56:56.377Z,16.73
2023-05-16T06:59:22.709Z,16.80
2023-05-16T07:01:48.979Z,16.93
2023-05-16T07:04:15.364Z,17.03
2023-05-16T07:06:41.790Z,17.15
2023-05-16T07:09:08.021Z,17.26
2023-05-16T07:11:34.286Z,17.24
2023-05-16T07:14:00.556Z,17.13
2023-05-16T07:16:26.946Z,16.98
2023-05-16T07:18:53.297Z,16.89
2023-05-16T07:21:19.649Z,16.95
2023-05-16T07:23:45.940Z,17.09
2023-05-16T07:26:12.242Z,17.21
2023-05-16T07:28:38.538Z,17.33
2023-05-16T07:31:04.840Z,17.30
2023-05-16T07:33:31.145Z,17.37
2023-05-16T07:36:07.835Z,17.54
2023-05-16T07:38:41.416Z,17.67
2023-05-16T07:41:07.744Z,17.83
2023-05-16T07:43:34.018Z,18.05
2023-05-16T07:46:00.423Z,18.09
2023-05-16T07:48:26.831Z,18.21
2023-05-16T07:50:55.107Z,18.35
2023-05-16T07:53:22.135Z,18.46
2023-05-16T07:55:48.447Z,18.52
2023-05-16T07:58:14.740Z,18.50
2023-05-16T08:00:41.094Z,18.48
2023-05-16T08:03:07.572Z,18.50
2023-05-16T08:05:34.024Z,18.60
2023-05-16T08:08:00.448Z,18.69
2023-05-16T08:10:26.800Z,18.71
2023-05-16T08:12:55.744Z,18.69
2023-05-16T08:15:22.124Z,18.69
2023-05-16T08:17:48.472Z,18.71
2023-05-16T08:20:14.838Z,18.82
2023-05-16T08:22:41.162Z,18.90
2023-05-16T08:25:07.450Z,18.96
2023-05-16T08:27:33.738Z,19.01
2023-05-16T08:30:00.035Z,18.95
2023-05-16T08:32:26.381Z,18.98
2023-05-16T08:34:52.679Z,19.00
2023-05-16T08:37:19.023Z,19.03
2023-05-16T08:39:45.487Z,18.95
2023-05-16T08:42:11.809Z,18.86
2023-05-16T08:44:38.175Z,18.74
2023-05-16T08:47:04.515Z,18.73
2023-05-16T08:49:30.860Z,18.79
2023-05-16T08:51:57.165Z,18.87
2023-05-16T08:54:23.434Z,18.95
2023-05-16T08:56:49.745Z,18.97
2023-05-16T08:59:16.096Z,18.94
2023-05-16T09:01:42.527Z,18.95
2023-05-16T09:04:09.023Z,18.94
2023-05-16T09:06:35.365Z,18.98
2023-05-16T09:09:01.595Z,18.98
2023-05-16T09:11:27.914Z,18.94
2023-05-16T09:13:54.155Z,18.95
2023-05-16T09:16:20.499Z,19.04
2023-05-16T09:18:46.950Z,19.14
2023-05-16T09:21:13.461Z,19.14
2023-05-16T09:23:39.751Z,19.21
2023-05-16T09:26:06.111Z,19.36
2023-05-16T09:28:32.389Z,19.43
2023-05-16T09:30:58.731Z,19.39
2023-05-16T09:33:25.096Z,19.38
2023-05-16T09:35:51.618Z,19.27
2023-05-16T09:38:18.042Z,19.25
2023-05-16T09:40:44.432Z,19.27
2023-05-16T09:43:10.760Z,19.06
2023-05-16T09:45:37.181Z,19.10
2023-05-16T09:48:03.575Z,19.08
2023-05-16T09:50:29.934Z,19.13
2023-05-16T09:52:56.236Z,19.25
2023-05-16T09:55:22.527Z,19.30
2023-05-16T09:57:48.852Z,19.56
2023-05-16T10:00:15.093Z,19.70
2023-05-16T10:02:41.481Z,19.78
2023-05-16T10:05:07.794Z,19.89
2023-05-16T10:07:34.065Z,19.94
2023-05-16T10:10:00.360Z,20.15
2023-05-16T10:12:26.627Z,20.57
2023-05-16T10:14:52.900Z,20.98
2023-05-16T10:17:19.185Z,21.40
2023-05-16T10:19:45.496Z,21.63
2023-05-16T10:22:11.765Z,21.53
2023-05-16T10:24:38.089Z,21.41
2023-05-16T10:27:04.397Z,21.33
2023-05-16T10:29:35.217Z,21.36
2023-05-16T10:32:06.548Z,21.75
2023-05-16T10:34:32.875Z,22.34
2023-05-16T10:36:59.188Z,22.84
2023-05-16T10:39:25.452Z,22.95
2023-05-16T10:41:51.723Z,22.87
2023-05-16T10:44:18.007Z,22.83
2023-05-16T10:46:44.379Z,22.63
2023-05-16T10:49:10.820Z,22.71
2023-05-16T10:51:37.175Z,22.95
2023-05-16T10:54:03.468Z,22.92
2023-05-16T10:56:29.791Z,22.67
2023-05-16T10:58:56.083Z,22.44
2023-05-16T11:01:22.580Z,22.54
2023-05-16T11:03:49.046Z,22.53
2023-05-16T11:06:15.340Z,22.56
2023-05-16T11:08:41.609Z,22.54
2023-05-16T11:11:07.871Z,22.55
2023-05-16T11:13:36.876Z,22.41
2023-05-16T11:16:03.197Z,22.33
2023-05-16T11:18:29.590Z,22.27
2023-05-16T11:20:55.913Z,22.23
2023-05-16T11:23:22.295Z,22.19
2023-05-16T11:25:48.798Z,22.14
2023-05-16T11:28:15.315Z,22.09
2023-05-16T11:30:41.607Z,22.20
2023-05-16T11:33:07.911Z,22.21
2023-05-16T11:35:34.248Z,22.13
2023-05-16T11:38:00.578Z,22.04
2023-05-16T11:40:26.903Z,22.04
2023-05-16T11:42:53.194Z,22.01
2023-05-16T11:45:19.453Z,21.95
2023-05-16T11:47:45.818Z,21.77
2023-05-16T11:50:12.125Z,21.70
2023-05-16T11:52:38.427Z,21.70
2023-05-16T11:55:04.732Z,21.76
2023-05-16T11:57:31.006Z,21.88
2023-05-16T11:59:57.387Z,21.97
2023-05-16T12:02:23.686Z,21.97
2023-05-16T12:04:50.151Z,21.81
2023-05-16T12:07:16.590Z,21.78
2023-05-16T12:09:42.908Z,21.81
2023-05-16T12:12:09.154Z,21.90
2023-05-16T12:14:35.459Z,22.02
2023-05-16T12:17:01.901Z,22.13
2023-05-16T12:19:28.354Z,22.33
2023-05-16T12:21:54.761Z,22.47
2023-05-16T12:24:21.060Z,22.46
2023-05-16T12:26:47.397Z,22.35
2023-05-16T12:29:13.683Z,22.19
2023-05-16T12:31:40.021Z,21.84
2023-05-16T12:34:06.315Z,21.62
2023-05-16T12:36:32.659Z,21.34
2023-05-16T12:38:58.908Z,21.06
2023-05-16T12:41:25.141Z,20.85
2023-05-16T12:43:51.474Z,20.63
2023-05-16T12:46:17.785Z,20.47
2023-05-16T12:48:44.115Z,20.40
2023-05-16T12:51:10.430Z,20.31
2023-05-16T12:53:36.688Z,20.15
2023-05-16T12:56:02.994Z,20.03
2023-05-16T12:58:29.277Z,19.94
2023-05-16T13:00:55.564Z,19.93
2023-05-16T13:03:21.975Z,19.83
2023-05-16T13:05:48.363Z,19.77
2023-05-16T13:08:14.615Z,19.68
2023-05-16T13:10:40.982Z,19.61
2023-05-16T13:13:07.241Z,19.52
2023-05-16T13:15:35.641Z,19.45
2023-05-16T13:18:01.970Z,19.50
2023-05-16T13:20:28.355Z,19.55
2023-05-16T13:22:54.625Z,19.57
2023-05-16T13:25:20.973Z,19.58
2023-05-16T13:27:47.336Z,19.57
2023-05-16T13:30:13.684Z,19.49
2023-05-16T13:32:40.040Z,19.52
2023-05-16T13:35:06.478Z,19.57
2023-05-16T13:37:32.745Z,19.51
2023-05-16T13:39:59.001Z,19.56
2023-05-16T13:42:25.291Z,19.48
2023-05-16T13:44:51.549Z,19.46
2023-05-16T13:47:17.898Z,19.40
2023-05-16T13:49:44.197Z,19.32
2023-05-16T13:52:10.524Z,19.25
2023-05-16T13:54:36.912Z,19.13
2023-05-16T13:57:03.255Z,19.06
2023-05-16T13:59:48.797Z,19.02
2023-05-16T14:02:15.924Z,18.98
2023-05-16T14:04:42.253Z,18.99
2023-05-16T14:07:08.529Z,19.00
2023-05-16T14:09:34.815Z,18.92
2023-05-16T14:12:01.130Z,18.83
2023-05-16T14:14:27.457Z,18.76
2023-05-16T14:16:53.803Z,18.68
2023-05-16T14:19:20.165Z,18.63
2023-05-16T14:21:46.421Z,18.65
2023-05-16T14:24:12.730Z,18.68
2023-05-16T14:26:39.012Z,18.71
2023-05-16T14:29:05.354Z,18.71
2023-05-16T14:31:31.725Z,18.77
2023-05-16T14:33:58.040Z,18.80
2023-05-16T14:36:24.307Z,18.76
2023-05-16T14:38:50.561Z,18.77
2023-05-16T14:41:16.852Z,18.78
2023-05-16T14:43:43.201Z,18.77
2023-05-16T14:46:09.520Z,18.78
2023-05-16T14:48:35.868Z,18.80
2023-05-16T14:51:02.244Z,18.79
2023-05-16T14:53:28.526Z,18.77
2023-05-16T14:55:54.900Z,18.78
2023-05-16T14:58:21.228Z,18.77
2023-05-16T15:00:47.536Z,18.76
2023-05-16T15:03:15.770Z,18.78
2023-05-16T15:05:42.358Z,18.72
2023-05-16T15:08:08.664Z,18.70
2023-05-16T15:10:34.998Z,18.70
2023-05-16T15:13:01.354Z,18.70
2023-05-16T15:15:27.632Z,18.63
2023-05-16T15:17:54.018Z,18.56
2023-05-16T15:20:21.921Z,18.50
2023-05-16T15:22:49.014Z,18.44
2023-05-16T15:25:15.380Z,18.41
2023-05-16T15:27:41.657Z,18.40
2023-05-16T15:30:07.938Z,18.39
2023-05-16T15:32:34.256Z,18.33
2023-05-16T15:35:00.641Z,18.33
2023-05-16T15:37:26.967Z,18.31
2023-05-16T15:39:53.349Z,18.28
2023-05-16T15:42:19.623Z,18.21
2023-05-16T15:44:45.911Z,18.12
2023-05-16T15:47:12.264Z,18.08
2023-05-16T15:49:38.622Z,18.03
2023-05-16T15:52:04.996Z,18.06
2023-05-16T15:54:31.246Z,18.07
2023-05-16T15:56:57.558Z,18.05
2023-05-16T15:59:23.953Z,17.98
2023-05-16T16:01:50.349Z,17.91
2023-05-16T16:04:16.716Z,17.86
2023-05-16T16:06:43.065Z,17.84
2023-05-16T16:09:09.366Z,17.80
2023-05-16T16:11:35.654Z,17.73
2023-05-16T16:14:02.017Z,17.74
2023-05-16T16:16:28.367Z,17.76
2023-05-16T16:18:54.747Z,17.79
2023-05-16T16:21:21.022Z,17.83
2023-05-16T16:23:47.285Z,17.85
2023-05-16T16:26:13.642Z,17.89
2023-05-16T16:28:40.007Z,17.91
2023-05-16T16:31:06.310Z,17.94
2023-05-16T16:33:32.667Z,17.95
2023-05-16T16:35:58.976Z,17.88
2023-05-16T16:38:25.294Z,17.89
2023-05-16T16:40:51.604Z,17.84
2023-05-16T16:43:17.928Z,17.84
2023-05-16T16:45:44.212Z,17.79
2023-05-16T16:48:10.491Z,17.74
2023-05-16T16:50:36.894Z,17.82
2023-05-16T16:53:03.430Z,17.79
2023-05-16T16:55:29.955Z,17.76
2023-05-16T16:57:56.478Z,17.74
2023-05-16T17:00:22.824Z,17.71
2023-05-16T17:02:49.224Z,17.69
2023-05-16T17:05:15.614Z,17.69
2023-05-16T17:07:41.937Z,17.68
2023-05-16T17:10:08.245Z,17.70
2023-05-16T17:12:34.920Z,17.73
2023-05-16T17:15:01.312Z,17.73
2023-05-16T17:17:27.645Z,17.64
2023-05-16T17:19:54.022Z,17.56
2023-05-16T17:22:20.321Z,17.54
2023-05-16T17:24:46.753Z,17.55
2023-05-16T17:27:13.097Z,17.51
2023-05-16T17:29:39.332Z,17.52
2023-05-16T17:32:05.604Z,17.51
2023-05-16T17:34:31.878Z,17.46
2023-05-16T17:36:58.218Z,17.49
2023-05-16T17:39:24.482Z,17.48
2023-05-16T17:41:50.743Z,17.45
2023-05-16T17:44:17.005Z,17.37
2023-05-16T17:46:43.259Z,17.37
2023-05-16T17:49:09.608Z,17.37
2023-05-16T17:51:35.954Z,17.37
2023-05-16T17:54:02.273Z,17.32
2023-05-16T17:56:28.651Z,17.24
2023-05-16T17:58:54.934Z,17.20
2023-05-16T18:01:21.195Z,17.23
2023-05-16T18:03:47.617Z,17.22
2023-05-16T18:06:14.123Z,17.16
2023-05-16T18:08:40.526Z,17.14
2023-05-16T18:11:06.831Z,17.07
2023-05-16T18:13:33.103Z,17.04
2023-05-16T18:15:59.416Z,17.05
2023-05-16T18:18:25.718Z,17.05
2023-05-16T18:20:52.042Z,17.02
2023-05-16T18:23:18.374Z,17.00
2023-05-16T18:25:44.606Z,16.95
2023-05-16T18:28:10.952Z,16.95
2023-05-16T18:30:38.108Z,16.98
2023-05-16T18:33:04.656Z,16.93
2023-05-16T18:35:31.134Z,16.89
2023-05-16T18:37:57.501Z,16.83
2023-05-16T18:40:23.833Z,16.75
2023-05-16T18:42:50.125Z,16.69
2023-05-16T18:45:16.418Z,16.58
2023-05-16T18:47:42.808Z,16.43
2023-05-16T18:50:09.216Z,16.37
2023-05-16T18:52:35.543Z,16.35
2023-05-16T18:55:01.801Z,16.33
2023-05-16T18:57:28.259Z,16.37
2023-05-16T18:59:54.588Z,16.41
2023-05-16T19:02:27.518Z,16.43
2023-05-16T19:05:01.593Z,16.47
2023-05-16T19:07:28.104Z,16.53
2023-05-16T19:09:54.357Z,16.55
2023-05-16T19:12:22.670Z,16.52
2023-05-16T19:14:49.211Z,16.47
2023-05-16T19:17:15.491Z,16.48
2023-05-16T19:19:41.834Z,16.49
2023-05-16T19:22:08.198Z,16.50
2023-05-16T19:24:34.468Z,16.53
2023-05-16T19:27:00.744Z,16.59
2023-05-16T19:29:27.078Z,16.61
2023-05-16T19:31:53.377Z,16.58
2023-05-16T19:34:20.781Z,16.54
2023-05-16T19:36:47.304Z,16.51
2023-05-16T19:39:13.608Z,16.43
2023-05-16T19:41:40.565Z,16.44
2023-05-16T19:44:06.917Z,16.41
2023-05-16T19:46:33.196Z,16.42
2023-05-16T19:48:59.642Z,16.44
2023-05-16T19:51:40.263Z,16.42
2023-05-16T19:54:07.439Z,16.40
2023-05-16T19:56:33.751Z,16.37
2023-05-16T19:59:00.108Z,16.35
2023-05-16T20:01:26.415Z,16.34
2023-05-16T20:03:52.666Z,16.35
2023-05-16T20:06:18.980Z,16.38
2023-05-16T20:08:45.301Z,16.38
2023-05-16T20:11:11.584Z,16.34
2023-05-16T20:13:37.883Z,16.28
2023-05-16T20:16:04.130Z,16.24
2023-05-16T20:18:30.476Z,16.21
2023-05-16T20:20:58.599Z,16.19
2023-05-16T20:23:25.318Z,16.19
2023-05-16T20:25:53.325Z,16.21
2023-05-16T20:28:19.638Z,16.20
2023-05-16T20:30:45.961Z,16.17
2023-05-16T20:33:12.268Z,16.12
2023-05-16T20:35:38.642Z,16.11
2023-05-16T20:38:04.932Z,16.20
2023-05-16T20:40:31.242Z,16.19
2023-05-16T20:42:57.504Z,16.17
2023-05-16T20:45:23.785Z,16.16
2023-05-16T20:47:50.146Z,16.16
2023-05-16T20:50:16.458Z,16.17
2023-05-16T20:52:42.758Z,16.15
2023-05-16T20:55:09.073Z,16.15
2023-05-16T20:57:35.365Z,16.19
2023-05-16T21:00:01.682Z,16.21
2023-05-16T21:02:28.015Z,16.19
2023-05-16T21:04:54.617Z,16.17
2023-05-16T21:07:21.535Z,16.16
2023-05-16T21:09:47.932Z,16.14
2023-05-16T21:12:14.233Z,16.14
2023-05-16T21:14:40.630Z,16.11
2023-05-16T21:17:06.936Z,16.05
2023-05-16T21:19:33.246Z,16.05
2023-05-16T21:21:59.517Z,16.09
2023-05-16T21:24:25.846Z,16.06
2023-05-16T21:26:52.134Z,16.03
2023-05-16T21:29:18.442Z,15.96
2023-05-16T21:31:44.722Z,15.96
2023-05-16T21:34:11.037Z,15.97
2023-05-16T21:36:37.367Z,15.95
2023-05-16T21:39:03.676Z,15.95
2023-05-16T21:41:30.003Z,15.95
2023-05-16T21:43:56.360Z,15.95
2023-05-16T21:46:22.636Z,15.95
2023-05-16T21:48:49.066Z,15.94
2023-05-16T21:51:15.466Z,15.92
2023-05-16T21:53:41.752Z,15.93
2023-05-16T21:56:08.139Z,15.90
2023-05-16T21:58:34.495Z,15.85
2023-05-16T22:01:00.791Z,15.84
2023-05-16T22:03:27.143Z,15.85
2023-05-16T22:05:53.472Z,15.84
2023-05-16T22:08:19.787Z,15.83
2023-05-16T22:10:46.146Z,15.80
2023-05-16T22:13:12.442Z,15.80
2023-05-16T22:15:40.710Z,15.78
2023-05-16T22:18:07.248Z,15.73
2023-05-16T22:20:33.612Z,15.66
2023-05-16T22:22:59.919Z,15.65
2023-05-16T22:25:26.261Z,15.65
2023-05-16T22:27:52.699Z,15.64
2023-05-16T22:30:19.005Z,15.66
2023-05-16T22:32:45.414Z,15.66
2023-05-16T22:35:11.805Z,15.71
2023-05-16T22:37:38.158Z,15.71
2023-05-16T22:40:04.534Z,15.68
2023-05-16T22:42:30.868Z,15.66
2023-05-16T22:44:57.141Z,15.65
2023-05-16T22:47:23.522Z,15.62
2023-05-16T22:49:49.866Z,15.60
2023-05-16T22:52:16.248Z,15.58
2023-05-16T22:54:42.487Z,15.61
2023-05-16T22:57:08.816Z,15.64
2023-05-16T22:59:35.133Z,15.60
2023-05-16T23:02:01.449Z,15.55
2023-05-16T23:04:27.792Z,15.47
2023-05-16T23:06:54.096Z,15.48
2023-05-16T23:09:20.334Z,15.41
2023-05-16T23:11:46.734Z,15.38
2023-05-16T23:14:13.015Z,15.31
2023-05-16T23:16:39.330Z,15.27
2023-05-16T23:19:08.389Z,15.30
2023-05-16T23:21:35.660Z,15.28
2023-05-16T23:24:01.924Z,15.26
2023-05-16T23:26:28.225Z,15.22
2023-05-16T23:28:54.560Z,15.20
2023-05-16T23:31:20.842Z,15.16
2023-05-16T23:33:47.224Z,15.12
2023-05-16T23:36:13.656Z,15.09
2023-05-16T23:38:39.937Z,15.07
2023-05-16T23:41:06.226Z,15.10
2023-05-16T23:43:32.522Z,15.11
2023-05-16T23:45:58.855Z,15.11
2023-05-16T23:48:25.208Z,15.15
2023-05-16T23:50:51.533Z,15.14
2023-05-16T23:53:17.823Z,15.09
2023-05-16T23:55:44.073Z,15.10
2023-05-16T23:58:10.354Z,15.09
